Time;durP1;ratioP1;P1;durP2;ratioP2;P2;SDS_P1;SDS_P2;PMS_P1;PMS_P2;Temp;Humidity;BMP_temperature;BMP_pressure;BME280_temperature;BME280_humidity;BME280_pressure;Samples;Min_cycle;Max_cycle;Signal;HPM_P1;HPM_P2
2022/09/29 00:00:11;;;;;;;4.80;3.10;;;8.00;99.90;;;;;;5051913;28;20122;-45
2022/09/29 00:02:37;;;;;;;4.20;3.20;;;7.90;99.90;;;;;;5050924;28;20049;-46
2022/09/29 00:05:05;;;;;;;5.40;3.75;;;7.90;99.90;;;;;;5050243;28;20045;-49
2022/09/29 00:07:33;;;;;;;7.03;3.13;;;7.90;99.90;;;;;;5032780;28;20057;-46
2022/09/29 00:10:00;;;;;;;4.88;3.30;;;7.90;99.90;;;;;;5048543;28;20053;-46
2022/09/29 00:12:27;;;;;;;5.97;4.55;;;7.80;99.90;;;;;;5051145;28;20523;-49
2022/09/29 00:14:54;;;;;;;4.72;3.85;;;7.80;99.90;;;;;;5050496;28;20045;-48
2022/09/29 00:17:21;;;;;;;4.07;3.65;;;7.80;99.90;;;;;;5045290;28;20049;-47
2022/09/29 00:19:47;;;;;;;3.65;3.15;;;7.80;99.90;;;;;;5050114;28;20110;-40
2022/09/29 00:22:14;;;;;;;5.60;3.80;;;7.70;99.90;;;;;;5051904;28;20106;-47
2022/09/29 00:24:42;;;;;;;5.00;3.90;;;7.70;99.90;;;;;;5050151;28;20072;-45
2022/09/29 00:27:09;;;;;;;4.22;3.45;;;7.70;99.90;;;;;;5050802;28;20053;-46
2022/09/29 00:29:36;;;;;;;4.72;4.20;;;7.70;99.90;;;;;;5047865;28;20718;-45
2022/09/29 00:32:03;;;;;;;5.10;4.47;;;7.70;99.90;;;;;;5051425;28;20484;-46
2022/09/29 00:34:29;;;;;;;6.38;4.15;;;7.60;99.90;;;;;;5041510;28;20103;-47
2022/09/29 00:36:56;;;;;;;7.13;4.40;;;7.60;99.90;;;;;;5048094;28;20080;-50
2022/09/29 00:39:23;;;;;;;5.20;4.22;;;7.70;99.90;;;;;;5051530;28;20056;-49
2022/09/29 00:41:51;;;;;;;6.22;3.80;;;7.60;99.90;;;;;;5050178;28;20052;-48
2022/09/29 00:44:54;;;;;;;6.65;3.53;;;7.60;99.90;;;;;;5051616;28;20049;-46
2022/09/29 00:47:21;;;;;;;5.28;4.10;;;7.60;99.90;;;;;;5044665;28;20053;-46
2022/09/29 00:49:50;;;;;;;4.93;4.43;;;7.60;99.90;;;;;;5050270;28;20041;-49
2022/09/29 00:52:20;;;;;;;7.78;4.50;;;7.50;99.90;;;;;;5050174;28;20481;-49
2022/09/29 00:54:48;;;;;;;5.00;4.07;;;7.50;99.90;;;;;;5051319;28;20103;-46
2022/09/29 00:57:18;;;;;;;5.53;4.03;;;7.50;99.90;;;;;;5047646;28;20106;-47
2022/09/29 00:59:47;;;;;;;4.85;4.05;;;7.50;99.90;;;;;;5050415;28;20068;-48
2022/09/29 01:02:14;;;;;;;5.70;3.97;;;7.50;99.90;;;;;;5047221;28;20497;-44
2022/09/29 01:04:40;;;;;;;6.65;5.13;;;7.40;99.90;;;;;;5054030;28;20492;-46
2022/09/29 01:07:07;;;;;;;8.18;4.93;;;7.40;99.90;;;;;;5053657;28;20098;-46
2022/09/29 01:09:36;;;;;;;7.20;4.30;;;7.40;99.90;;;;;;5048692;28;20124;-45
2022/09/29 01:12:03;;;;;;;7.13;5.03;;;7.30;99.90;;;;;;5050326;28;20056;-46
2022/09/29 01:14:32;;;;;;;6.47;4.55;;;7.30;99.90;;;;;;5048538;28;20057;-44
2022/09/29 01:16:59;;;;;;;7.95;5.00;;;7.40;99.90;;;;;;5050357;28;20053;-46
2022/09/29 01:19:29;;;;;;;6.18;5.28;;;7.30;99.90;;;;;;5053124;28;20123;-46
2022/09/29 01:22:00;;;;;;;6.20;4.07;;;7.30;99.90;;;;;;5058144;28;20103;-47
2022/09/29 01:24:56;;;;;;;7.25;4.28;;;7.30;99.90;;;;;;5054246;28;20053;-45
2022/09/29 01:27:55;;;;;;;7.70;4.65;;;7.30;99.90;;;;;;5051116;28;20053;-45
2022/09/29 01:30:23;;;;;;;5.53;4.30;;;7.20;99.90;;;;;;5040237;28;20041;-45
2022/09/29 01:33:05;;;;;;;6.15;3.78;;;7.20;99.90;;;;;;5048843;28;20049;-46
2022/09/29 01:35:36;;;;;;;4.85;3.85;;;7.20;99.90;;;;;;5039993;28;20095;-44
2022/09/29 01:38:07;;;;;;;;;;;7.20;99.90;;;;;;5039614;28;20136;-44
2022/09/29 01:40:37;;;;;;;6.50;4.97;;;7.10;99.90;;;;;;5050772;28;19994;-46
2022/09/29 01:43:05;;;;;;;5.03;4.40;;;7.10;99.90;;;;;;5048661;28;20147;-44
2022/09/29 01:45:33;;;;;;;8.20;4.80;;;7.10;99.90;;;;;;5057941;28;20071;-43
2022/09/29 01:48:04;;;;;;;7.30;5.43;;;7.10;99.90;;;;;;5052800;28;20128;-45
2022/09/29 01:50:33;;;;;;;4.55;3.67;;;7.10;99.90;;;;;;5059082;28;20053;-45
2022/09/29 01:53:02;;;;;;;9.52;5.97;;;7.00;99.90;;;;;;5055746;28;20106;-44
2022/09/29 01:55:30;;;;;;;6.05;4.93;;;7.00;99.90;;;;;;5050421;28;20477;-46
2022/09/29 01:57:58;;;;;;;9.65;4.72;;;7.00;99.90;;;;;;5053380;28;20107;-45
2022/09/29 02:00:30;;;;;;;5.65;4.82;;;7.00;99.90;;;;;;5053918;28;20095;-45
2022/09/29 02:02:58;;;;;;;4.97;4.03;;;6.90;99.90;;;;;;5052859;28;20485;-45
2022/09/29 02:05:27;;;;;;;5.05;4.20;;;7.00;99.90;;;;;;5054406;28;20107;-45
2022/09/29 02:07:55;;;;;;;9.15;5.80;;;6.90;99.90;;;;;;5055017;28;20122;-46
2022/09/29 02:10:23;;;;;;;7.25;5.38;;;6.90;99.90;;;;;;5051191;28;20094;-45
2022/09/29 02:12:50;;;;;;;7.03;5.55;;;6.90;99.90;;;;;;5053910;28;20045;-44
2022/09/29 02:15:20;;;;;;;6.22;5.43;;;6.90;99.90;;;;;;5051324;28;20048;-46
2022/09/29 02:17:48;;;;;;;5.25;4.50;;;6.90;99.90;;;;;;5054743;28;20432;-44
2022/09/29 02:20:15;;;;;;;6.00;5.30;;;6.90;99.90;;;;;;5047591;28;20528;-45
2022/09/29 02:22:43;;;;;;;5.47;4.97;;;6.80;99.90;;;;;;5051496;28;20079;-46
2022/09/29 02:25:11;;;;;;;9.73;5.10;;;6.80;99.90;;;;;;5052247;28;20121;-45
2022/09/29 02:27:38;;;;;;;5.93;4.63;;;6.80;99.90;;;;;;5053068;28;20546;-45
2022/09/29 02:30:06;;;;;;;5.70;5.10;;;6.80;99.90;;;;;;5055499;28;20118;-43
2022/09/29 02:32:33;;;;;;;6.20;5.25;;;6.80;99.90;;;;;;5051518;28;20098;-47
2022/09/29 02:35:00;;;;;;;7.32;5.90;;;6.80;99.90;;;;;;5051893;28;20402;-45
2022/09/29 02:37:36;;;;;;;6.93;5.70;;;6.70;99.90;;;;;;5050392;28;20072;-44
2022/09/29 02:40:17;;;;;;;5.47;4.57;;;6.70;99.90;;;;;;5068166;28;20076;-46
2022/09/29 02:42:49;;;;;;;9.15;5.97;;;6.70;99.90;;;;;;5052438;28;20045;-45
2022/09/29 02:45:31;;;;;;;13.13;5.55;;;6.70;99.90;;;;;;5054276;28;20045;-45
2022/09/29 02:48:13;;;;;;;8.02;6.03;;;6.70;99.90;;;;;;5056470;28;20393;-46
2022/09/29 02:50:57;;;;;;;11.05;6.53;;;6.60;99.90;;;;;;5044495;28;20057;-45
2022/09/29 02:53:37;;;;;;;12.23;6.35;;;6.60;99.90;;;;;;5051348;28;20045;-44
2022/09/29 02:56:09;;;;;;;7.65;5.38;;;6.60;99.90;;;;;;5050977;28;20045;-45
2022/09/29 02:58:38;;;;;;;8.18;4.72;;;6.60;99.90;;;;;;5053147;28;20554;-45
2022/09/29 03:01:06;;;;;;;7.15;5.03;;;6.50;99.90;;;;;;5052852;28;20049;-46
2022/09/29 03:03:33;;;;;;;8.07;4.85;;;6.50;99.90;;;;;;5051531;28;20063;-45
2022/09/29 03:05:59;;;;;;;9.02;5.15;;;6.50;99.90;;;;;;5052642;28;20420;-45
2022/09/29 03:08:26;;;;;;;11.32;4.88;;;6.50;99.90;;;;;;5050780;28;20084;-45
2022/09/29 03:10:53;;;;;;;7.85;5.25;;;6.50;99.90;;;;;;5052261;28;20081;-44
2022/09/29 03:13:21;;;;;;;7.93;4.60;;;6.40;99.90;;;;;;5053451;28;20048;-45
2022/09/29 03:15:48;;;;;;;6.15;4.63;;;6.40;99.90;;;;;;5050538;28;20111;-42
2022/09/29 03:18:15;;;;;;;6.90;4.63;;;6.40;99.90;;;;;;5049701;28;20126;-45
2022/09/29 03:20:42;;;;;;;7.25;4.95;;;6.40;99.90;;;;;;5053818;28;20516;-44
2022/09/29 03:23:08;;;;;;;9.65;5.00;;;6.40;99.90;;;;;;5052772;28;20546;-45
2022/09/29 03:25:35;;;;;;;6.18;4.53;;;6.40;99.90;;;;;;5063940;28;20075;-43
2022/09/29 03:28:02;;;;;;;6.07;3.95;;;6.30;99.90;;;;;;5046101;28;20058;-43
2022/09/29 03:30:30;;;;;;;6.18;3.70;;;6.30;99.90;;;;;;5050866;28;20053;-42
2022/09/29 03:32:57;;;;;;;6.70;5.53;;;6.30;99.90;;;;;;5050134;28;20097;-43
2022/09/29 03:35:24;;;;;;;8.07;5.32;;;6.30;99.90;;;;;;5050947;28;20090;-45
2022/09/29 03:37:52;;;;;;;14.20;6.80;;;6.30;99.90;;;;;;5051529;28;20052;-44
2022/09/29 03:40:19;;;;;;;20.13;7.55;;;6.30;99.90;;;;;;5052977;28;20123;-45
2022/09/29 03:42:46;;;;;;;14.40;7.00;;;6.30;99.90;;;;;;5050429;28;20420;-44
2022/09/29 03:45:13;;;;;;;32.00;8.15;;;6.30;99.90;;;;;;5048967;28;20493;-50
2022/09/29 03:47:41;;;;;;;13.35;5.82;;;6.30;99.90;;;;;;5051788;28;20052;-44
2022/09/29 03:50:08;;;;;;;9.60;6.30;;;6.20;99.90;;;;;;5048406;28;20057;-45
2022/09/29 03:52:35;;;;;;;17.45;7.22;;;6.30;99.90;;;;;;5053074;28;20103;-45
2022/09/29 03:55:02;;;;;;;15.52;6.75;;;6.20;99.90;;;;;;5051060;28;20452;-47
2022/09/29 03:57:29;;;;;;;22.98;7.72;;;6.20;99.90;;;;;;5050938;28;20484;-42
2022/09/29 03:59:56;;;;;;;19.83;7.32;;;6.20;99.90;;;;;;5050004;28;20448;-44
2022/09/29 04:02:22;;;;;;;22.77;6.13;;;6.20;99.90;;;;;;5048726;28;20405;-45
2022/09/29 04:04:51;;;;;;;17.83;5.45;;;6.20;99.90;;;;;;5045480;28;20064;-48
2022/09/29 04:07:17;;;;;;;14.18;6.30;;;6.20;99.90;;;;;;5048674;28;20045;-47
2022/09/29 04:09:44;;;;;;;34.75;6.90;;;6.20;99.90;;;;;;5051020;28;20092;-50
2022/09/29 04:12:11;;;;;;;20.63;5.50;;;6.10;99.90;;;;;;5068524;28;20049;-50
2022/09/29 04:14:38;;;;;;;15.23;5.65;;;6.10;99.90;;;;;;5068924;28;20083;-47
2022/09/29 04:17:05;;;;;;;11.65;6.05;;;6.10;99.90;;;;;;5052386;28;20517;-49
2022/09/29 04:19:31;;;;;;;15.27;6.47;;;6.10;99.90;;;;;;5048159;28;20053;-48
2022/09/29 04:22:00;;;;;;;17.17;6.88;;;6.10;99.90;;;;;;5051450;28;20107;-46
2022/09/29 04:24:27;;;;;;;14.43;6.43;;;6.10;99.90;;;;;;5055052;28;20570;-49
2022/09/29 04:26:53;;;;;;;18.13;7.40;;;6.10;99.90;;;;;;5052930;28;20044;-50
2022/09/29 04:29:20;;;;;;;15.23;6.30;;;6.00;99.90;;;;;;5049988;28;20094;-49
2022/09/29 04:31:47;;;;;;;11.77;6.13;;;6.00;99.90;;;;;;5049749;28;20481;-48
2022/09/29 04:34:14;;;;;;;13.95;6.90;;;6.00;99.90;;;;;;5055084;28;20048;-47
2022/09/29 04:36:41;;;;;;;8.80;5.63;;;6.00;99.90;;;;;;5053059;28;20049;-46
2022/09/29 04:39:09;;;;;;;13.52;6.93;;;6.00;99.90;;;;;;5052672;28;20056;-47
2022/09/29 04:41:38;;;;;;;16.92;6.30;;;6.00;99.90;;;;;;5051004;28;20503;-46
2022/09/29 04:44:05;;;;;;;12.50;5.93;;;6.00;99.90;;;;;;5049094;28;20189;-49
2022/09/29 04:46:32;;;;;;;11.02;6.13;;;6.00;99.90;;;;;;5050104;28;20053;-46
2022/09/29 04:48:59;;;;;;;11.88;7.25;;;6.00;99.90;;;;;;5065261;28;20554;-48
2022/09/29 04:51:26;;;;;;;13.93;6.80;;;5.90;99.90;;;;;;5035926;28;20111;-46
2022/09/29 04:53:53;;;;;;;16.08;8.13;;;5.90;99.90;;;;;;5033167;28;20114;-47
2022/09/29 04:56:21;;;;;;;18.58;8.63;;;5.90;99.90;;;;;;5042653;28;20056;-48
2022/09/29 04:58:48;;;;;;;19.70;8.93;;;5.90;99.90;;;;;;5055301;28;20091;-47
2022/09/29 05:01:15;;;;;;;17.05;7.18;;;5.90;99.90;;;;;;5060817;28;20059;-46
2022/09/29 05:03:42;;;;;;;16.20;7.05;;;5.90;99.90;;;;;;5059290;28;20060;-46
2022/09/29 05:06:09;;;;;;;16.52;6.93;;;5.90;99.90;;;;;;5049907;28;20057;-44
2022/09/29 05:08:36;;;;;;;14.43;6.65;;;5.90;99.90;;;;;;5056842;28;20044;-45
2022/09/29 05:11:04;;;;;;;13.13;6.00;;;5.80;99.90;;;;;;5051565;28;20057;-44
2022/09/29 05:13:32;;;;;;;10.88;5.63;;;5.80;99.90;;;;;;5057822;28;20132;-45
2022/09/29 05:15:59;;;;;;;12.10;5.20;;;5.80;99.90;;;;;;5053982;28;20080;-44
2022/09/29 05:18:26;;;;;;;8.05;4.70;;;5.80;99.90;;;;;;5047325;28;20057;-42
2022/09/29 05:20:53;;;;;;;11.68;5.60;;;5.80;99.90;;;;;;5045467;28;20048;-46
2022/09/29 05:23:20;;;;;;;8.18;4.95;;;5.80;99.90;;;;;;5050761;28;20048;-45
2022/09/29 05:25:47;;;;;;;8.15;5.00;;;5.70;99.90;;;;;;5056754;28;20485;-44
2022/09/29 05:28:14;;;;;;;8.20;4.50;;;5.70;99.90;;;;;;5067611;28;20056;-45
2022/09/29 05:30:43;;;;;;;9.60;5.40;;;5.70;99.90;;;;;;5045252;28;20053;-45
2022/09/29 05:33:10;;;;;;;7.53;4.75;;;5.70;99.90;;;;;;5051014;28;20055;-47
2022/09/29 05:35:37;;;;;;;12.05;5.30;;;5.60;99.90;;;;;;5051219;28;20082;-44
2022/09/29 05:38:04;;;;;;;7.97;5.20;;;5.60;99.90;;;;;;5047116;28;20057;-42
2022/09/29 05:40:31;;;;;;;7.47;4.68;;;5.60;99.90;;;;;;5040664;28;20053;-45
2022/09/29 05:42:59;;;;;;;7.57;5.05;;;5.60;99.90;;;;;;5052368;28;20108;-45
2022/09/29 05:45:26;;;;;;;6.88;5.60;;;5.60;99.90;;;;;;5051206;28;20247;-45
2022/09/29 05:47:54;;;;;;;8.65;5.88;;;5.60;99.90;;;;;;5051943;28;20481;-46
2022/09/29 05:50:22;;;;;;;6.63;5.00;;;5.60;99.90;;;;;;5052013;28;20477;-47
2022/09/29 05:52:49;;;;;;;9.60;6.72;;;5.60;99.90;;;;;;5051375;28;20501;-48
2022/09/29 05:55:16;;;;;;;5.70;5.10;;;5.60;99.90;;;;;;5051288;28;20123;-45
2022/09/29 05:57:43;;;;;;;6.00;5.30;;;5.60;99.90;;;;;;5052093;28;20095;-45
2022/09/29 06:00:10;;;;;;;13.55;6.82;;;5.60;99.90;;;;;;5052082;28;20087;-43
2022/09/29 06:02:37;;;;;;;21.33;7.30;;;5.60;99.90;;;;;;5052069;28;20072;-47
2022/09/29 06:05:05;;;;;;;15.05;7.13;;;5.60;99.90;;;;;;5051137;28;20460;-45
2022/09/29 06:07:32;;;;;;;16.15;7.80;;;5.60;99.90;;;;;;5051166;28;20095;-46
2022/09/29 06:09:59;;;;;;;11.27;6.55;;;5.60;99.90;;;;;;5052235;28;20045;-45
2022/09/29 06:12:26;;;;;;;5.93;5.32;;;5.60;99.90;;;;;;5050709;28;20122;-45
2022/09/29 06:14:53;;;;;;;9.73;7.05;;;5.60;99.90;;;;;;5051010;28;20065;-44
2022/09/29 06:17:19;;;;;;;11.95;7.50;;;5.60;99.90;;;;;;5050728;28;20085;-46
2022/09/29 06:19:46;;;;;;;16.52;8.05;;;5.70;99.90;;;;;;5051754;28;20049;-44
2022/09/29 06:22:14;;;;;;;12.25;6.60;;;5.70;99.90;;;;;;5052174;28;20049;-42
2022/09/29 06:24:41;;;;;;;19.02;9.05;;;5.70;99.90;;;;;;5051023;28;20060;-45
2022/09/29 06:27:09;;;;;;;13.20;7.65;;;5.70;99.90;;;;;;5051097;28;20091;-44
2022/09/29 06:29:36;;;;;;;10.27;8.27;;;5.80;99.90;;;;;;5052000;28;20108;-43
2022/09/29 06:32:03;;;;;;;13.57;9.48;;;5.80;99.90;;;;;;5054247;28;20048;-46
2022/09/29 06:34:30;;;;;;;11.52;9.90;;;5.90;99.90;;;;;;5054593;28;20385;-46
2022/09/29 06:39:42;;;;;;;11.48;9.20;;;6.00;99.90;;;;;;5053456;28;20053;-46
2022/09/29 06:42:10;;;;;;;12.85;10.07;;;5.90;99.90;;;;;;5055221;28;20053;-45
2022/09/29 06:44:37;;;;;;;15.48;12.63;;;6.00;99.90;;;;;;5054184;28;20052;-45
2022/09/29 06:47:04;;;;;;;13.82;10.38;;;6.00;99.90;;;;;;5054981;28;20493;-44
2022/09/29 06:49:31;;;;;;;14.23;10.93;;;6.00;99.90;;;;;;5053151;28;20057;-44
2022/09/29 06:51:57;;;;;;;13.90;10.80;;;6.10;99.90;;;;;;5054493;28;20052;-46
2022/09/29 06:54:24;;;;;;;18.52;15.10;;;6.20;99.90;;;;;;5055011;28;20053;-46
2022/09/29 06:56:54;;;;;;;14.93;12.80;;;6.30;99.90;;;;;;5054942;28;20099;-46
2022/09/29 06:59:20;;;;;;;17.58;13.82;;;6.40;99.90;;;;;;5054890;28;20049;-47
2022/09/29 07:01:48;;;;;;;18.02;13.40;;;6.40;99.90;;;;;;5052939;28;20041;-45
2022/09/29 07:04:15;;;;;;;16.75;13.25;;;6.60;99.90;;;;;;5054935;28;20103;-43
2022/09/29 07:06:42;;;;;;;15.93;13.10;;;6.60;99.90;;;;;;5054858;28;20098;-46
2022/09/29 07:09:14;;;;;;;17.33;13.98;;;6.70;99.90;;;;;;5054635;28;20072;-46
2022/09/29 07:11:41;;;;;;;14.18;12.60;;;6.90;99.90;;;;;;5053811;28;20052;-47
2022/09/29 07:14:09;;;;;;;17.02;13.93;;;7.00;99.90;;;;;;5054472;28;20049;-45
2022/09/29 07:16:36;;;;;;;16.02;13.05;;;7.20;99.90;;;;;;5054788;28;20064;-45
2022/09/29 07:19:03;;;;;;;16.80;13.50;;;7.30;99.90;;;;;;5052527;28;20099;-44
2022/09/29 07:21:30;;;;;;;15.50;12.85;;;7.40;99.90;;;;;;5052819;28;20098;-45
2022/09/29 07:23:56;;;;;;;16.35;12.88;;;7.50;99.90;;;;;;5053619;28;20467;-43
2022/09/29 07:26:23;;;;;;;12.95;10.82;;;7.60;99.90;;;;;;5054235;28;20106;-42
2022/09/29 07:28:50;;;;;;;19.60;14.00;;;7.70;99.90;;;;;;5051812;28;20114;-44
2022/09/29 07:31:20;;;;;;;14.52;12.55;;;7.90;99.90;;;;;;5053525;28;20053;-46
2022/09/29 07:33:47;;;;;;;12.20;10.52;;;8.00;99.90;;;;;;5034630;28;20128;-44
2022/09/29 07:36:15;;;;;;;18.05;13.10;;;8.10;99.90;;;;;;5034319;28;20488;-46
2022/09/29 07:38:42;;;;;;;17.70;14.13;;;8.20;99.90;;;;;;5036589;28;20489;-46
2022/09/29 07:41:09;;;;;;;16.33;12.80;;;8.30;99.90;;;;;;5052799;28;20049;-43
2022/09/29 07:43:36;;;;;;;17.70;13.80;;;8.40;99.90;;;;;;5053660;28;20049;-44
2022/09/29 07:46:03;;;;;;;15.23;13.05;;;8.50;99.90;;;;;;5052911;28;20111;-45
2022/09/29 07:48:32;;;;;;;18.60;13.43;;;8.60;99.90;;;;;;5052976;28;20110;-43
2022/09/29 07:51:02;;;;;;;14.88;11.93;;;8.70;99.90;;;;;;5052924;28;20053;-44
2022/09/29 07:53:29;;;;;;;14.77;12.38;;;8.80;99.90;;;;;;5053927;28;20434;-45
2022/09/29 07:56:02;;;;;;;14.10;11.27;;;8.90;99.90;;;;;;5052420;28;20091;-44
2022/09/29 07:58:28;;;;;;;13.55;11.40;;;9.00;99.90;;;;;;5053077;28;20045;-45
2022/09/29 08:00:55;;;;;;;13.60;11.65;;;9.10;99.90;;;;;;5053649;28;20045;-45
2022/09/29 08:03:24;;;;;;;13.95;10.82;;;9.20;99.90;;;;;;5051971;28;20051;-45
2022/09/29 08:05:52;;;;;;;14.30;11.40;;;9.30;99.90;;;;;;5053666;28;20049;-42
2022/09/29 08:08:19;;;;;;;13.63;10.82;;;9.40;99.90;;;;;;5053530;28;20106;-45
2022/09/29 08:10:46;;;;;;;14.07;12.10;;;9.50;99.90;;;;;;5052532;28;20386;-43
2022/09/29 08:13:13;;;;;;;13.38;11.20;;;9.70;99.90;;;;;;5052531;28;20045;-43
2022/09/29 08:15:40;;;;;;;13.18;10.43;;;9.80;99.90;;;;;;5051442;28;20138;-46
2022/09/29 08:18:06;;;;;;;13.98;11.77;;;10.00;99.90;;;;;;5053504;28;20049;-43
2022/09/29 08:20:34;;;;;;;12.18;10.35;;;10.20;99.90;;;;;;5053444;28;20052;-43
2022/09/29 08:23:03;;;;;;;18.20;10.30;;;10.30;99.90;;;;;;5053199;28;20041;-43
2022/09/29 08:25:29;;;;;;;12.32;10.30;;;10.40;99.90;;;;;;5053268;28;20095;-44
2022/09/29 08:27:56;;;;;;;12.23;10.55;;;10.60;99.90;;;;;;5052599;28;20452;-48
2022/09/29 08:30:23;;;;;;;13.02;10.63;;;10.70;99.90;;;;;;5053315;28;20045;-44
2022/09/29 08:32:53;;;;;;;12.88;10.43;;;10.90;99.90;;;;;;5041267;28;20056;-44
2022/09/29 08:35:20;;;;;;;13.13;10.70;;;11.10;99.90;;;;;;5032190;28;20056;-44
2022/09/29 08:37:47;;;;;;;11.65;10.07;;;11.20;99.90;;;;;;5042410;28;20064;-44
2022/09/29 08:40:16;;;;;;;11.50;9.95;;;11.40;99.90;;;;;;5051546;28;20053;-44
2022/09/29 08:42:48;;;;;;;12.80;9.60;;;11.60;99.90;;;;;;5052256;28;20072;-45
2022/09/29 08:45:18;;;;;;;13.45;10.25;;;11.70;99.90;;;;;;5052104;28;20053;-45
2022/09/29 08:47:46;;;;;;;13.43;9.60;;;11.80;99.90;;;;;;5053053;28;20386;-45
2022/09/29 08:50:14;;;;;;;12.90;9.63;;;11.90;99.90;;;;;;5050438;28;20239;-44
2022/09/29 08:52:42;;;;;;;10.02;8.63;;;12.00;99.90;;;;;;5068184;28;20061;-48
2022/09/29 08:55:23;;;;;;;15.75;8.90;;;12.10;99.90;;;;;;5067882;28;20080;-43
2022/09/29 08:57:55;;;;;;;12.50;9.18;;;12.30;99.90;;;;;;5051788;28;20044;-44
2022/09/29 09:00:22;;;;;;;10.48;8.55;;;12.40;99.90;;;;;;5050826;28;20044;-43
2022/09/29 09:02:59;;;;;;;9.63;8.60;;;12.50;99.90;;;;;;5068489;28;20048;-44
2022/09/29 09:05:39;;;;;;;12.18;8.93;;;12.70;99.90;;;;;;5052889;28;20118;-43
2022/09/29 09:08:10;;;;;;;13.05;9.35;;;12.80;99.90;;;;;;5052724;28;20444;-42
2022/09/29 09:10:43;;;;;;;10.50;8.98;;;12.90;99.90;;;;;;5052764;28;20405;-45
2022/09/29 09:13:19;;;;;;;12.35;8.55;;;13.00;99.90;;;;;;5051025;28;20045;-43
2022/09/29 09:16:08;;;;;;;9.35;8.27;;;13.20;99.90;;;;;;5067376;28;20060;-42
2022/09/29 09:19:02;;;;;;;8.93;7.97;;;13.30;99.90;;;;;;5051753;28;20072;-44
2022/09/29 09:21:34;;;;;;;10.95;8.27;;;13.40;99.90;;;;;;5049612;28;20057;-41
2022/09/29 09:24:03;;;;;;;;;;;13.50;99.90;;;;;;5051912;28;20041;-43
2022/09/29 09:26:33;;;;;;;10.43;8.23;;;13.70;99.90;;;;;;5051653;28;20335;-43
2022/09/29 09:29:02;;;;;;;11.13;7.97;;;13.80;99.90;;;;;;5068320;28;20056;-43
2022/09/29 09:31:32;;;;;;;8.35;7.50;;;13.80;99.90;;;;;;5051407;28;20084;-45
2022/09/29 09:34:00;;;;;;;8.73;7.82;;;13.90;99.90;;;;;;5051417;28;20186;-42
2022/09/29 09:36:31;;;;;;;10.32;7.20;;;14.00;99.90;;;;;;5052320;28;20449;-43
2022/09/29 09:38:59;;;;;;;11.45;8.05;;;14.20;99.90;;;;;;5067787;28;20191;-44
2022/09/29 09:41:27;;;;;;;9.10;7.35;;;14.30;99.90;;;;;;5052492;28;20049;-44
2022/09/29 09:43:57;;;;;;;7.38;5.93;;;14.40;99.90;;;;;;5067405;28;20131;-43
2022/09/29 09:46:26;;;;;;;7.60;6.80;;;14.50;99.90;;;;;;5050160;28;20048;-44
2022/09/29 09:48:58;;;;;;;9.13;7.18;;;14.50;99.90;;;;;;5050662;28;20045;-43
2022/09/29 09:51:33;;;;;;;8.38;5.97;;;14.60;99.90;;;;;;5050557;28;20111;-42
2022/09/29 09:54:03;;;;;;;10.75;6.28;;;14.80;99.90;;;;;;5052214;28;20493;-44
2022/09/29 09:56:39;;;;;;;6.22;5.55;;;14.80;99.90;;;;;;5068083;28;20045;-43
2022/09/29 09:59:31;;;;;;;5.70;5.10;;;14.90;99.90;;;;;;5066857;28;20110;-44
2022/09/29 10:01:58;;;;;;;7.70;5.28;;;14.90;99.90;;;;;;5052118;28;20551;-45
2022/09/29 10:04:25;;;;;;;7.88;4.82;;;15.00;99.90;;;;;;5049961;28;20107;-47
2022/09/29 10:06:52;;;;;;;6.60;5.22;;;15.00;99.90;;;;;;5071547;28;20053;-43
2022/09/29 10:09:19;;;;;;;6.57;4.82;;;15.20;99.90;;;;;;5070717;28;20048;-42
2022/09/29 10:11:46;;;;;;;6.70;4.85;;;15.10;99.90;;;;;;5054640;28;20489;-43
2022/09/29 10:14:14;;;;;;;7.60;5.22;;;15.10;99.90;;;;;;5054417;28;20484;-41
2022/09/29 10:16:44;;;;;;;10.55;5.32;;;15.10;99.90;;;;;;5055670;28;20407;-43
2022/09/29 10:19:11;;;;;;;8.15;5.03;;;15.10;99.90;;;;;;5070425;28;20057;-43
2022/09/29 10:21:39;;;;;;;8.80;5.20;;;15.20;99.90;;;;;;5054733;28;20049;-43
2022/09/29 10:24:17;;;;;;;7.15;4.55;;;15.30;99.90;;;;;;5055623;28;20048;-44
2022/09/29 10:26:44;;;;;;;6.88;4.63;;;15.40;99.90;;;;;;5054570;28;20052;-42
2022/09/29 10:29:23;;;;;;;6.50;4.18;;;15.50;99.90;;;;;;5054158;28;20497;-43
2022/09/29 10:32:02;;;;;;;5.57;4.45;;;15.50;99.90;;;;;;5034794;28;20503;-42
2022/09/29 10:34:29;;;;;;;6.35;4.50;;;15.50;99.90;;;;;;5034452;28;20111;-43
2022/09/29 10:37:03;;;;;;;6.95;4.80;;;15.60;99.90;;;;;;5035304;28;20481;-43
2022/09/29 10:39:31;;;;;;;9.55;4.40;;;15.70;99.90;;;;;;5035934;28;20080;-43
2022/09/29 10:41:58;;;;;;;4.50;3.25;;;15.70;99.90;;;;;;5055458;28;20063;-42
2022/09/29 10:44:25;;;;;;;6.22;3.28;;;15.80;99.90;;;;;;5054145;28;20485;-44
2022/09/29 10:46:53;;;;;;;4.28;2.60;;;15.90;99.90;;;;;;5055402;28;20045;-42
2022/09/29 10:49:23;;;;;;;3.13;2.80;;;15.90;99.90;;;;;;5053900;28;20497;-42
2022/09/29 10:51:55;;;;;;;5.20;2.70;;;16.00;99.90;;;;;;5054147;28;20139;-42
2022/09/29 10:54:25;;;;;;;2.90;2.60;;;16.10;99.90;;;;;;5054824;28;20098;-44
2022/09/29 10:56:52;;;;;;;4.22;2.45;;;16.20;99.90;;;;;;5055184;28;20131;-41
2022/09/29 10:59:19;;;;;;;5.72;2.67;;;16.30;99.70;;;;;;5053907;28;20052;-43
2022/09/29 11:01:48;;;;;;;3.38;2.65;;;16.40;99.50;;;;;;5070518;28;20135;-42
2022/09/29 11:04:18;;;;;;;3.03;2.28;;;16.50;99.30;;;;;;5053977;28;20041;-41
2022/09/29 11:06:46;;;;;;;4.30;2.30;;;16.50;98.80;;;;;;5070556;28;20132;-41
2022/09/29 11:09:27;;;;;;;3.47;1.80;;;16.50;98.40;;;;;;5054803;28;20098;-43
2022/09/29 11:11:54;;;;;;;3.72;2.35;;;16.50;98.70;;;;;;5070710;28;20045;-41
2022/09/29 11:14:24;;;;;;;3.78;2.03;;;16.60;98.60;;;;;;5054801;28;20447;-43
2022/09/29 11:16:53;;;;;;;4.47;1.95;;;16.70;98.20;;;;;;5052546;28;20053;-41
2022/09/29 11:19:20;;;;;;;3.70;2.05;;;16.80;97.90;;;;;;5054600;28;20132;-40
2022/09/29 11:22:01;;;;;;;3.35;2.08;;;17.00;97.60;;;;;;5052688;28;20118;-43
2022/09/29 11:25:01;;;;;;;2.10;1.90;;;17.10;97.20;;;;;;5038843;28;20152;-43
2022/09/29 11:27:33;;;;;;;3.20;2.58;;;17.20;97.10;;;;;;5001894;28;20436;-42
2022/09/29 11:30:02;;;;;;;5.90;2.85;;;17.30;96.90;;;;;;5049639;28;20106;-41
2022/09/29 11:32:43;;;;;;;5.75;2.40;;;17.30;96.30;;;;;;5051725;28;20037;-43
2022/09/29 11:35:28;;;;;;;3.85;2.65;;;17.40;96.30;;;;;;5047140;28;20489;-43
2022/09/29 11:38:15;;;;;;;5.45;2.83;;;17.60;97.00;;;;;;5054202;28;20045;-43
2022/09/29 11:40:48;;;;;;;4.47;2.55;;;17.60;96.70;;;;;;5052946;28;20056;-41
2022/09/29 11:43:26;;;;;;;4.80;3.20;;;17.70;96.80;;;;;;5053313;28;20086;-41
2022/09/29 11:45:56;;;;;;;6.03;2.60;;;17.90;96.60;;;;;;5053407;28;20049;-40
2022/09/29 11:48:39;;;;;;;6.20;2.40;;;17.90;95.50;;;;;;5053198;28;20049;-42
2022/09/29 11:51:10;;;;;;;2.47;2.20;;;18.00;95.20;;;;;;5054030;28;20055;-41
2022/09/29 11:53:48;;;;;;;3.67;1.88;;;18.10;94.50;;;;;;5050019;28;20088;-42
2022/09/29 11:56:24;;;;;;;2.38;1.67;;;18.10;94.80;;;;;;5052069;28;20049;-42
2022/09/29 11:58:59;;;;;;;5.03;2.17;;;18.10;93.80;;;;;;5053159;28;20057;-44
2022/09/29 12:01:30;;;;;;;3.33;2.45;;;18.20;93.50;;;;;;5053352;28;20049;-41
2022/09/29 12:04:16;;;;;;;3.00;2.00;;;18.20;93.90;;;;;;5068379;28;20049;-46
2022/09/29 12:07:00;;;;;;;3.53;2.13;;;18.30;93.60;;;;;;5073132;28;20053;-42
2022/09/29 12:10:01;;;;;;;2.97;2.10;;;18.40;93.70;;;;;;5071137;28;20143;-42
2022/09/29 12:12:32;;;;;;;4.90;2.20;;;18.50;93.90;;;;;;5062394;28;20532;-41
2022/09/29 12:15:18;;;;;;;4.63;2.30;;;18.40;93.50;;;;;;5069774;28;20052;-45
2022/09/29 12:17:47;;;;;;;2.58;2.28;;;18.30;93.90;;;;;;5052261;28;20087;-41
2022/09/29 12:20:18;;;;;;;2.20;1.77;;;18.00;94.30;;;;;;5047024;28;20057;-42
2022/09/29 12:22:46;;;;;;;2.88;2.15;;;17.90;94.40;;;;;;5051827;28;20049;-43
2022/09/29 12:25:16;;;;;;;3.63;1.95;;;17.80;94.60;;;;;;5032649;28;20535;-40
2022/09/29 12:27:43;;;;;;;3.42;2.15;;;17.80;94.30;;;;;;5031884;28;20504;-42
2022/09/29 12:30:15;;;;;;;7.47;2.13;;;18.00;94.10;;;;;;5052337;28;20137;-40
2022/09/29 12:32:44;;;;;;;3.63;1.85;;;18.10;93.70;;;;;;5069051;28;20059;-41
2022/09/29 12:35:13;;;;;;;1.80;1.40;;;18.20;93.40;;;;;;5068542;28;20060;-42
2022/09/29 12:37:41;;;;;;;2.38;1.30;;;18.30;92.80;;;;;;5052384;28;20088;-40
2022/09/29 12:40:11;;;;;;;1.92;1.50;;;18.40;92.20;;;;;;5067432;28;20087;-41
2022/09/29 12:42:46;;;;;;;1.48;1.35;;;18.50;91.90;;;;;;5053376;28;20045;-41
2022/09/29 12:45:16;;;;;;;2.00;1.13;;;18.50;91.90;;;;;;5053161;28;20088;-40
2022/09/29 12:47:50;;;;;;;0.98;0.60;;;18.60;91.40;;;;;;5052811;28;20045;-40
2022/09/29 12:50:18;;;;;;;0.80;0.77;;;18.70;90.80;;;;;;5051279;28;20053;-41
2022/09/29 12:52:48;;;;;;;2.00;0.90;;;18.70;90.10;;;;;;5052927;28;20045;-41
2022/09/29 12:55:19;;;;;;;3.03;1.10;;;18.80;90.50;;;;;;5051683;28;20049;-40
2022/09/29 12:57:48;;;;;;;1.50;0.90;;;18.80;90.20;;;;;;5051583;28;20057;-42
2022/09/29 13:00:17;;;;;;;1.20;0.80;;;18.80;90.20;;;;;;5050130;28;20056;-41
2022/09/29 13:03:14;;;;;;;1.88;0.98;;;18.90;90.30;;;;;;5067339;28;20088;-40